Time;durP1;ratioP1;P1;durP2;ratioP2;P2;SDS_P1;SDS_P2;PMS_P1;PMS_P2;Temp;Humidity;BMP_temperature;BMP_pressure;BME280_temperature;BME280_humidity;BME280_pressure;Samples;Min_cycle;Max_cycle;Signal;HPM_P1;HPM_P2
2022/10/02 00:02:29;;;;;;;7.15;3.33;;;11.20;99.90;;;;;;4771780;30;20118;-68
2022/10/02 00:05:01;;;;;;;13.75;3.53;;;11.20;99.90;;;;;;4786271;30;20043;-69
2022/10/02 00:07:35;;;;;;;14.10;4.05;;;11.20;99.90;;;;;;4779632;29;20067;-68
2022/10/02 00:10:08;;;;;;;16.48;3.92;;;11.30;99.90;;;;;;4771701;30;20062;-68
2022/10/02 00:12:35;;;;;;;15.32;4.03;;;11.20;99.90;;;;;;4787982;30;20112;-69
2022/10/02 00:15:11;;;;;;;10.85;3.38;;;11.20;99.90;;;;;;4757251;30;20130;-67
2022/10/02 00:17:42;;;;;;;11.27;4.18;;;11.30;99.90;;;;;;4770654;30;20076;-68
2022/10/02 00:20:13;;;;;;;10.40;3.53;;;11.30;99.90;;;;;;4762242;30;20079;-68
2022/10/02 00:23:10;;;;;;;9.55;3.25;;;11.20;99.90;;;;;;4771595;29;20366;-68
2022/10/02 00:25:47;;;;;;;9.15;3.17;;;11.20;99.90;;;;;;4771554;30;20046;-68
2022/10/02 00:28:29;;;;;;;11.18;3.53;;;11.20;99.90;;;;;;4785905;30;20055;-68
2022/10/02 00:31:01;;;;;;;11.35;2.70;;;11.30;99.90;;;;;;4771404;30;20068;-69
2022/10/02 00:34:06;;;;;;;10.38;3.00;;;11.40;99.90;;;;;;4771343;30;20362;-69
2022/10/02 00:36:52;;;;;;;9.82;2.83;;;11.40;99.90;;;;;;4770446;30;20051;-67
2022/10/02 00:39:52;;;;;;;11.85;3.25;;;11.40;99.90;;;;;;4787150;29;20489;-69
2022/10/02 00:42:21;;;;;;;8.75;2.80;;;11.40;99.90;;;;;;4787915;29;20071;-69
2022/10/02 00:45:24;;;;;;;10.25;2.50;;;11.40;99.90;;;;;;4775224;30;20518;-70
2022/10/02 00:48:27;;;;;;;7.10;2.78;;;11.40;99.90;;;;;;4786534;30;20069;-69
2022/10/02 00:51:08;;;;;;;11.70;2.33;;;11.30;99.90;;;;;;4756997;30;20058;-68
2022/10/02 00:54:28;;;;;;;9.10;2.42;;;11.30;99.90;;;;;;4742655;30;20113;-68
2022/10/02 00:57:10;;;;;;;8.30;2.53;;;11.20;99.90;;;;;;4744349;30;20047;-68
2022/10/02 00:59:50;;;;;;;9.93;3.00;;;11.20;99.90;;;;;;4774806;30;20055;-68
2022/10/02 01:02:25;;;;;;;8.95;2.58;;;11.10;99.90;;;;;;4789619;30;20059;-70
2022/10/02 01:04:52;;;;;;;8.63;2.45;;;11.10;99.90;;;;;;4774563;29;20051;-69
2022/10/02 01:07:18;;;;;;;8.80;2.20;;;11.10;99.90;;;;;;4774090;30;20392;-68
2022/10/02 01:09:44;;;;;;;6.95;2.60;;;11.10;99.90;;;;;;4774047;30;20053;-68
2022/10/02 01:12:10;;;;;;;10.27;2.45;;;11.10;99.90;;;;;;4760048;30;20062;-68
2022/10/02 01:14:38;;;;;;;8.85;2.80;;;11.10;99.90;;;;;;4789718;30;20058;-68
2022/10/02 01:17:15;;;;;;;6.30;2.13;;;11.10;99.90;;;;;;4789058;30;20058;-69
2022/10/02 01:19:41;;;;;;;6.40;2.15;;;11.20;99.90;;;;;;4774323;30;20047;-67
2022/10/02 01:22:41;;;;;;;8.95;2.42;;;11.20;99.90;;;;;;4775111;30;20066;-68
2022/10/02 01:25:07;;;;;;;6.93;2.53;;;11.20;99.90;;;;;;4774228;30;20051;-68
2022/10/02 01:27:34;;;;;;;6.05;2.70;;;11.20;99.90;;;;;;4787870;29;20039;-68
2022/10/02 01:30:03;;;;;;;7.03;2.20;;;11.20;99.90;;;;;;4759304;30;20394;-68
2022/10/02 01:32:30;;;;;;;7.10;2.55;;;11.20;99.90;;;;;;4773748;30;20377;-68
2022/10/02 01:34:56;;;;;;;7.70;2.20;;;11.60;99.90;;;;;;4773043;30;20054;-69
2022/10/02 01:37:25;;;;;;;5.60;2.15;;;11.20;99.90;;;;;;4773222;30;20535;-67
2022/10/02 01:39:51;;;;;;;10.52;2.55;;;11.40;99.90;;;;;;4773779;30;20477;-68
2022/10/02 01:42:19;;;;;;;5.72;2.42;;;11.20;99.90;;;;;;4789305;30;20093;-69
2022/10/02 01:44:46;;;;;;;10.02;2.40;;;11.20;99.90;;;;;;4788988;30;20108;-67
2022/10/02 01:47:18;;;;;;;8.15;2.20;;;11.20;99.90;;;;;;4773208;30;20493;-69
2022/10/02 01:50:17;;;;;;;8.00;2.45;;;11.40;99.90;;;;;;4773758;30;20047;-68
2022/10/02 01:52:46;;;;;;;9.27;2.42;;;11.30;99.90;;;;;;4772088;30;20056;-67
2022/10/02 01:55:36;;;;;;;9.60;2.95;;;11.30;99.90;;;;;;4755969;30;20048;-67
2022/10/02 01:58:22;;;;;;;9.55;3.47;;;11.30;99.90;;;;;;4777932;30;20043;-68
2022/10/02 02:01:24;;;;;;;14.20;3.47;;;11.40;99.90;;;;;;4773519;30;20138;-67
2022/10/02 02:03:55;;;;;;;9.02;3.10;;;11.40;99.90;;;;;;4773327;30;20062;-67
2022/10/02 02:06:31;;;;;;;12.53;3.20;;;11.30;99.90;;;;;;4774274;30;20112;-67
2022/10/02 02:09:20;;;;;;;7.32;2.88;;;11.40;99.90;;;;;;4788386;30;20083;-68
2022/10/02 02:12:12;;;;;;;20.33;3.50;;;11.30;99.90;;;;;;4766341;30;20504;-69
2022/10/02 02:14:46;;;;;;;8.25;3.00;;;11.30;99.90;;;;;;4773432;30;20146;-67
2022/10/02 02:17:18;;;;;;;15.55;3.83;;;11.30;99.90;;;;;;4772731;30;20055;-69
2022/10/02 02:19:51;;;;;;;12.85;3.65;;;11.30;99.90;;;;;;4773321;29;20051;-68
2022/10/02 02:22:26;;;;;;;15.85;3.15;;;11.20;99.90;;;;;;4773269;30;20059;-68
2022/10/02 02:25:28;;;;;;;8.27;2.92;;;11.20;99.90;;;;;;4772816;30;20074;-68
2022/10/02 02:27:59;;;;;;;13.52;3.25;;;11.20;99.90;;;;;;4754146;30;20058;-69
2022/10/02 02:30:25;;;;;;;11.95;2.95;;;11.10;99.90;;;;;;4755891;30;20059;-68
2022/10/02 02:32:55;;;;;;;15.55;3.53;;;11.10;99.90;;;;;;4761292;30;20059;-68
2022/10/02 02:35:30;;;;;;;10.98;3.53;;;11.10;99.90;;;;;;4773102;30;20059;-69
2022/10/02 02:38:03;;;;;;;14.68;3.40;;;11.00;99.90;;;;;;4772397;30;20087;-67
2022/10/02 02:40:35;;;;;;;11.43;2.92;;;11.10;99.90;;;;;;4773090;30;20112;-67
2022/10/02 02:43:09;;;;;;;7.05;3.05;;;11.10;99.90;;;;;;4787930;30;20058;-67
2022/10/02 02:45:46;;;;;;;13.70;3.40;;;11.10;99.90;;;;;;4787453;30;20043;-67
2022/10/02 02:48:21;;;;;;;12.88;3.08;;;11.10;99.90;;;;;;4772448;30;20081;-69
2022/10/02 02:50:59;;;;;;;9.40;3.10;;;11.10;99.90;;;;;;4772933;30;20112;-68
2022/10/02 02:53:36;;;;;;;10.15;3.45;;;11.10;99.90;;;;;;4772426;30;20057;-68
2022/10/02 02:56:04;;;;;;;11.32;3.08;;;11.10;99.90;;;;;;4773032;30;20087;-68
2022/10/02 02:58:51;;;;;;;11.43;3.13;;;11.10;99.90;;;;;;4757527;30;20055;-68
2022/10/02 03:01:17;;;;;;;9.60;2.67;;;11.20;99.90;;;;;;4789226;30;20198;-68
2022/10/02 03:03:42;;;;;;;11.57;3.15;;;11.20;99.90;;;;;;4771953;29;20111;-67
2022/10/02 03:06:14;;;;;;;9.15;3.00;;;11.20;99.90;;;;;;4787607;29;20047;-68
2022/10/02 03:08:40;;;;;;;12.23;3.03;;;11.10;99.90;;;;;;4787437;29;20055;-69
2022/10/02 03:11:28;;;;;;;12.13;3.22;;;11.10;99.90;;;;;;4773065;30;20082;-67
2022/10/02 03:14:26;;;;;;;14.20;3.40;;;11.10;99.90;;;;;;4772365;30;20051;-67
2022/10/02 03:17:03;;;;;;;9.40;3.08;;;11.10;99.90;;;;;;4742925;30;20093;-67
2022/10/02 03:19:48;;;;;;;13.00;2.72;;;11.50;99.90;;;;;;4771550;30;20405;-68
2022/10/02 03:22:58;;;;;;;7.97;2.50;;;11.10;99.90;;;;;;4771465;30;20493;-69
2022/10/02 03:25:30;;;;;;;7.63;2.30;;;11.10;99.90;;;;;;4765980;30;20047;-67
2022/10/02 03:28:24;;;;;;;9.52;2.78;;;11.10;99.90;;;;;;4771894;30;20366;-67
2022/10/02 03:30:53;;;;;;;9.27;2.70;;;11.10;99.90;;;;;;4772762;30;20481;-68
2022/10/02 03:33:19;;;;;;;11.38;2.70;;;11.20;99.90;;;;;;4772723;30;20071;-68
2022/10/02 03:35:45;;;;;;;12.93;2.33;;;11.00;99.90;;;;;;4771777;30;20071;-68
2022/10/02 03:38:13;;;;;;;6.57;2.30;;;11.40;99.90;;;;;;4770782;30;20051;-68
2022/10/02 03:40:39;;;;;;;7.95;2.35;;;11.00;99.90;;;;;;4787400;30;20142;-69
2022/10/02 03:43:05;;;;;;;7.18;2.20;;;11.00;99.90;;;;;;4787579;30;20062;-69
2022/10/02 03:45:31;;;;;;;7.22;2.15;;;11.00;99.90;;;;;;4772457;30;20051;-68
2022/10/02 03:47:56;;;;;;;6.18;1.98;;;11.40;99.90;;;;;;4756074;30;20062;-69
2022/10/02 03:50:22;;;;;;;11.45;2.75;;;11.00;99.90;;;;;;4788416;30;20135;-68
2022/10/02 03:52:52;;;;;;;7.82;2.08;;;11.00;99.90;;;;;;4768649;30;20454;-69
2022/10/02 03:55:35;;;;;;;7.32;1.63;;;10.90;99.90;;;;;;4787703;30;20051;-68
2022/10/02 03:58:11;;;;;;;9.82;2.42;;;10.90;99.90;;;;;;4771229;30;20104;-68
2022/10/02 04:00:44;;;;;;;9.10;2.42;;;10.80;99.90;;;;;;4756980;30;20543;-68
2022/10/02 04:03:27;;;;;;;10.95;2.13;;;11.20;99.90;;;;;;4786627;30;20062;-68
2022/10/02 04:05:58;;;;;;;5.03;1.98;;;10.90;99.90;;;;;;4787891;30;20053;-68
2022/10/02 04:08:35;;;;;;;8.93;2.45;;;10.80;99.90;;;;;;4769598;30;20054;-68
2022/10/02 04:11:24;;;;;;;7.50;2.13;;;10.80;99.90;;;;;;4788264;30;20055;-68
2022/10/02 04:14:05;;;;;;;8.15;2.15;;;10.70;99.90;;;;;;4782776;29;20061;-68
2022/10/02 04:17:01;;;;;;;7.82;2.20;;;10.70;99.90;;;;;;4771176;30;20524;-68
2022/10/02 04:19:38;;;;;;;6.20;2.35;;;10.70;99.90;;;;;;4771974;30;20059;-68
2022/10/02 04:22:23;;;;;;;11.70;2.60;;;10.70;99.90;;;;;;4771294;30;20189;-69
2022/10/02 04:24:57;;;;;;;10.55;2.80;;;10.70;99.90;;;;;;4771087;30;20111;-68
2022/10/02 04:27:33;;;;;;;10.43;2.78;;;10.70;99.90;;;;;;4771679;30;20055;-68
2022/10/02 04:30:03;;;;;;;8.95;2.10;;;10.70;99.90;;;;;;4787586;30;20517;-68
2022/10/02 04:32:35;;;;;;;11.52;2.67;;;10.70;99.90;;;;;;4786216;30;20066;-69
2022/10/02 04:35:16;;;;;;;10.23;2.60;;;10.70;99.90;;;;;;4787919;30;20163;-68
2022/10/02 04:37:51;;;;;;;7.88;2.25;;;10.70;99.90;;;;;;4771333;30;20055;-68
2022/10/02 04:40:34;;;;;;;7.57;2.28;;;10.70;99.90;;;;;;4786084;30;20103;-68
2022/10/02 04:43:29;;;;;;;8.00;2.10;;;10.70;99.90;;;;;;4786473;30;20051;-68
2022/10/02 04:45:59;;;;;;;9.20;2.60;;;10.70;99.90;;;;;;4769445;30;20485;-69
2022/10/02 04:48:50;;;;;;;6.40;2.83;;;10.60;99.90;;;;;;4787358;30;20146;-68
2022/10/02 04:51:40;;;;;;;12.13;2.55;;;10.50;99.90;;;;;;4769659;30;20523;-68
2022/10/02 04:54:40;;;;;;;15.13;3.85;;;10.50;99.90;;;;;;4771218;30;20505;-68
2022/10/02 04:57:08;;;;;;;6.55;2.30;;;10.60;99.90;;;;;;4786559;30;20059;-68
2022/10/02 05:00:03;;;;;;;6.75;2.63;;;10.50;99.90;;;;;;4771132;30;20143;-68
2022/10/02 05:02:37;;;;;;;8.10;3.00;;;10.50;99.90;;;;;;4769355;30;20063;-69
2022/10/02 05:05:33;;;;;;;8.77;2.80;;;10.70;99.90;;;;;;4770033;30;20047;-69
2022/10/02 05:08:24;;;;;;;7.07;2.78;;;10.40;99.90;;;;;;4770795;30;20063;-68
2022/10/02 05:10:55;;;;;;;13.82;2.80;;;10.40;99.90;;;;;;4771248;30;20114;-67
2022/10/02 05:13:45;;;;;;;11.20;2.73;;;10.30;99.90;;;;;;4771076;30;20393;-68
2022/10/02 05:16:20;;;;;;;8.32;2.83;;;10.40;99.90;;;;;;4768721;30;20047;-69
2022/10/02 05:19:11;;;;;;;7.70;2.90;;;10.40;99.90;;;;;;4770870;30;20062;-67
2022/10/02 05:22:06;;;;;;;9.93;2.65;;;10.40;99.90;;;;;;4770080;30;20051;-68
2022/10/02 05:24:57;;;;;;;9.80;3.28;;;10.40;99.90;;;;;;4785582;30;20051;-68
2022/10/02 05:27:49;;;;;;;10.32;2.70;;;10.40;99.90;;;;;;4753793;30;20108;-69
2022/10/02 05:30:17;;;;;;;9.98;3.03;;;10.40;99.90;;;;;;4788331;30;20100;-69
2022/10/02 05:33:12;;;;;;;9.10;3.00;;;10.40;99.90;;;;;;4742235;30;20401;-69
2022/10/02 05:36:07;;;;;;;12.90;3.25;;;10.40;99.90;;;;;;4760652;30;20051;-69
2022/10/02 05:38:51;;;;;;;11.35;3.63;;;10.40;99.90;;;;;;4773418;30;20055;-69
2022/10/02 05:41:26;;;;;;;14.85;4.00;;;10.30;99.90;;;;;;4783548;30;20058;-69
2022/10/02 05:44:07;;;;;;;11.98;3.10;;;10.40;99.90;;;;;;4768491;30;20176;-70
2022/10/02 05:47:07;;;;;;;11.82;3.15;;;10.40;99.90;;;;;;4771374;30;20156;-70
2022/10/02 05:49:39;;;;;;;15.32;3.22;;;10.40;99.90;;;;;;4783648;30;20044;-68
2022/10/02 05:52:34;;;;;;;11.15;3.17;;;10.30;99.90;;;;;;4772834;30;20134;-68
2022/10/02 05:55:03;;;;;;;10.45;3.15;;;10.30;99.90;;;;;;4769183;30;20066;-69
2022/10/02 05:57:37;;;;;;;15.13;2.92;;;10.40;99.90;;;;;;4770612;30;20480;-68
2022/10/02 06:00:19;;;;;;;18.67;3.88;;;10.40;99.90;;;;;;4769894;30;20126;-69
2022/10/02 06:03:25;;;;;;;12.15;3.25;;;10.40;99.90;;;;;;4772262;30;20082;-69
2022/10/02 06:06:09;;;;;;;15.52;3.88;;;10.40;99.90;;;;;;4742053;30;20051;-67
2022/10/02 06:09:00;;;;;;;12.48;3.35;;;10.50;99.90;;;;;;4786306;29;20118;-69
2022/10/02 06:11:41;;;;;;;19.63;4.10;;;10.50;99.90;;;;;;4789155;29;20571;-70
2022/10/02 06:14:14;;;;;;;12.88;3.38;;;10.50;99.90;;;;;;4774050;30;20055;-68
2022/10/02 06:16:55;;;;;;;11.63;3.80;;;10.50;99.90;;;;;;4773507;30;20055;-68
2022/10/02 06:19:33;;;;;;;8.90;3.25;;;10.50;99.90;;;;;;4789840;30;20393;-69
2022/10/02 06:22:10;;;;;;;11.80;3.38;;;10.60;99.90;;;;;;4772503;30;20413;-69
2022/10/02 06:24:40;;;;;;;14.45;3.40;;;10.60;99.90;;;;;;4787824;29;20100;-69
2022/10/02 06:27:13;;;;;;;13.27;3.20;;;10.60;99.90;;;;;;4774008;30;20051;-69
2022/10/02 06:29:49;;;;;;;14.32;3.47;;;10.60;99.90;;;;;;4788279;30;20118;-69
2022/10/02 06:32:21;;;;;;;11.15;3.28;;;10.70;99.90;;;;;;4773730;30;20051;-69
2022/10/02 06:34:49;;;;;;;12.40;3.10;;;10.80;99.90;;;;;;4773385;30;20051;-68
2022/10/02 06:37:32;;;;;;;19.38;4.15;;;10.90;99.90;;;;;;4777289;29;20116;-69
2022/10/02 06:40:06;;;;;;;20.55;3.35;;;11.00;99.90;;;;;;4769562;30;20196;-69
2022/10/02 06:42:32;;;;;;;10.20;3.53;;;11.00;99.90;;;;;;4768719;30;20379;-69
2022/10/02 06:45:16;;;;;;;13.18;3.75;;;11.10;99.90;;;;;;4766360;30;20046;-69
2022/10/02 06:48:00;;;;;;;11.65;3.67;;;11.20;99.90;;;;;;4773429;30;20055;-68
2022/10/02 06:51:20;;;;;;;11.35;3.03;;;11.30;99.90;;;;;;4773510;30;20047;-69
2022/10/02 06:54:26;;;;;;;15.57;3.17;;;11.60;99.90;;;;;;4759325;30;20046;-68
2022/10/02 06:57:04;;;;;;;14.32;3.30;;;11.50;99.90;;;;;;4771264;30;20055;-68
2022/10/02 06:59:56;;;;;;;9.48;3.45;;;11.60;99.90;;;;;;4771408;30;20527;-68
2022/10/02 07:02:50;;;;;;;9.70;3.07;;;11.80;99.90;;;;;;4787894;30;20067;-68
2022/10/02 07:05:41;;;;;;;9.77;2.75;;;11.90;99.90;;;;;;4754925;30;20051;-69
2022/10/02 07:08:32;;;;;;;13.18;2.90;;;;;;;;;;4784584;30;20085;-69
2022/10/02 07:11:28;;;;;;;14.50;3.30;;;12.10;99.90;;;;;;4773069;30;20417;-69
2022/10/02 07:14:14;;;;;;;10.73;2.60;;;12.20;99.90;;;;;;4788538;30;20557;-69
2022/10/02 07:16:42;;;;;;;11.55;2.65;;;12.30;99.90;;;;;;4788170;29;20048;-69
2022/10/02 07:19:53;;;;;;;11.98;2.67;;;12.50;99.90;;;;;;4772667;30;20113;-68
2022/10/02 07:27:13;;;;;;;10.77;3.22;;;12.90;99.90;;;;;;4788621;30;20549;-69
2022/10/02 07:37:28;;;;;;;12.20;3.30;;;13.60;99.90;;;;;;4772301;30;20059;-69
2022/10/02 07:40:22;;;;;;;6.75;2.22;;;14.10;99.90;;;;;;4771998;30;20055;-69
2022/10/02 07:42:57;;;;;;;13.02;2.72;;;14.00;99.90;;;;;;4748964;29;20067;-70
2022/10/02 07:45:26;;;;;;;9.35;2.72;;;14.00;99.90;;;;;;4788054;30;20051;-69
2022/10/02 07:48:02;;;;;;;14.50;2.50;;;14.00;99.90;;;;;;4787470;29;20492;-69
2022/10/02 07:51:03;;;;;;;10.63;2.67;;;13.90;99.90;;;;;;4786963;29;20047;-69
2022/10/02 07:53:44;;;;;;;10.23;2.50;;;13.80;99.90;;;;;;4786167;29;20059;-70
2022/10/02 07:56:19;;;;;;;10.73;2.97;;;13.70;99.90;;;;;;4772031;30;20062;-69
2022/10/02 07:59:14;;;;;;;12.35;2.83;;;13.60;99.90;;;;;;4772313;30;20403;-69
2022/10/02 08:01:42;;;;;;;11.07;2.40;;;13.60;99.90;;;;;;4786742;30;20047;-69
2022/10/02 08:04:33;;;;;;;6.38;2.15;;;13.60;99.90;;;;;;4771757;30;20058;-69
2022/10/02 08:07:56;;;;;;;11.02;2.85;;;13.90;99.90;;;;;;4766497;30;20497;-68
2022/10/02 08:14:42;;;;;;;10.35;2.17;;;14.30;99.90;;;;;;4787964;29;20078;-68
2022/10/02 08:21:23;;;;;;;7.70;2.30;;;14.70;99.90;;;;;;4788182;30;20532;-69
2022/10/02 08:27:54;;;;;;;11.05;2.28;;;14.70;99.90;;;;;;4771520;30;20138;-69
2022/10/02 08:34:43;;;;;;;12.88;2.47;;;14.80;99.90;;;;;;4786829;30;20180;-70
2022/10/02 08:37:14;;;;;;;11.65;2.85;;;14.80;99.90;;;;;;4787064;30;20461;-69
2022/10/02 08:47:39;;;;;;;10.77;2.53;;;15.20;99.90;;;;;;4787220;29;20054;-70
2022/10/02 08:54:17;;;;;;;10.20;2.38;;;15.50;99.90;;;;;;4787008;29;20059;-69
2022/10/02 08:57:06;;;;;;;10.00;2.25;;;15.50;99.90;;;;;;4768256;30;20115;-70
2022/10/02 09:04:16;;;;;;;9.02;2.45;;;15.60;99.90;;;;;;4772771;30;20122;-70
2022/10/02 09:11:14;;;;;;;10.23;1.98;;;15.80;99.90;;;;;;4785413;30;20510;-69
2022/10/02 09:14:27;;;;;;;8.60;1.80;;;15.80;99.90;;;;;;4790681;29;20497;-70
2022/10/02 09:22:20;;;;;;;10.38;2.28;;;15.90;99.90;;;;;;4790777;30;20054;-69
2022/10/02 09:29:35;;;;;;;8.30;1.92;;;16.10;99.90;;;;;;4790504;30;20428;-70
2022/10/02 09:32:44;;;;;;;7.65;2.22;;;15.90;99.90;;;;;;4774248;30;20174;-70
2022/10/02 09:43:43;;;;;;;11.57;2.30;;;15.90;99.90;;;;;;4790301;30;20119;-69
2022/10/02 10:02:29;;;;;;;9.55;2.10;;;16.00;99.90;;;;;;4787549;29;20114;-69
2022/10/02 10:05:43;;;;;;;9.60;2.25;;;16.40;99.90;;;;;;4773032;30;20131;-70
2022/10/02 10:28:42;;;;;;;7.18;1.83;;;17.60;99.90;;;;;;4699495;30;20109;-69
2022/10/02 10:32:00;;;;;;;8.15;2.10;;;17.80;99.90;;;;;;4757163;30;20083;-70
2022/10/02 10:34:53;;;;;;;6.72;1.77;;;17.90;99.90;;;;;;4776278;30;20055;-69
2022/10/02 10:47:21;;;;;;;7.63;2.10;;;17.60;99.90;;;;;;4785092;30;20059;-67
2022/10/02 10:50:22;;;;;;;9.23;2.13;;;17.70;99.90;;;;;;4770227;30;20051;-67
2022/10/02 10:57:28;;;;;;;10.27;2.08;;;18.00;99.90;;;;;;4788210;30;20050;-67
2022/10/02 11:14:35;;;;;;;6.50;2.00;;;18.30;99.90;;;;;;4786365;30;20122;-67
2022/10/02 11:17:27;;;;;;;7.10;1.92;;;18.30;99.90;;;;;;4787418;29;20051;-67
2022/10/02 11:20:36;;;;;;;7.65;1.33;;;18.30;99.90;;;;;;4771077;30;20063;-67
2022/10/02 11:26:50;;;;;;;8.00;1.65;;;18.40;99.90;;;;;;4770183;30;20059;-67
2022/10/02 11:29:42;;;;;;;7.70;1.95;;;18.40;99.90;;;;;;4758577;30;20465;-67
2022/10/02 11:32:43;;;;;;;5.30;1.73;;;17.90;99.90;;;;;;4780082;30;20091;-71
2022/10/02 11:39:01;;;;;;;9.38;1.92;;;16.50;99.90;;;;;;4748476;30;20112;-70
2022/10/02 11:41:48;;;;;;;9.35;2.45;;;16.00;99.90;;;;;;4771737;30;20074;-69
2022/10/02 11:44:54;;;;;;;8.75;1.90;;;15.70;99.90;;;;;;4770952;30;20114;-70
2022/10/02 11:47:45;;;;;;;9.18;2.20;;;15.60;99.90;;;;;;4771085;30;20047;-67
2022/10/02 11:51:09;;;;;;;10.95;2.10;;;15.50;99.90;;;;;;4755021;30;20058;-68
2022/10/02 11:54:02;;;;;;;9.88;2.40;;;15.60;99.90;;;;;;4768153;30;20051;-68
2022/10/02 11:56:43;;;;;;;12.20;2.50;;;15.60;99.90;;;;;;4770743;30;20141;-68
2022/10/02 11:59:39;;;;;;;9.75;2.00;;;15.70;99.90;;;;;;4769127;30;20059;-68
2022/10/02 12:02:34;;;;;;;10.98;2.17;;;15.80;99.90;;;;;;4785649;30;20067;-68
2022/10/02 12:05:41;;;;;;;12.80;2.42;;;16.00;99.90;;;;;;4761813;30;20086;-68
2022/10/02 12:08:29;;;;;;;11.18;2.50;;;16.30;99.90;;;;;;4787572;30;20067;-68
2022/10/02 12:11:36;;;;;;;13.77;2.50;;;16.30;99.90;;;;;;4771132;30;20135;-68
2022/10/02 12:14:21;;;;;;;12.52;2.00;;;16.50;99.90;;;;;;4781354;30;20078;-68
2022/10/02 12:17:37;;;;;;;10.60;2.60;;;16.70;99.90;;;;;;4771143;30;20066;-68
2022/10/02 12:32:56;;;;;;;12.05;2.38;;;17.50;99.90;;;;;;4782511;30;20041;-68
2022/10/02 12:35:38;;;;;;;8.50;1.83;;;17.50;99.90;;;;;;4763569;30;20477;-68
2022/10/02 12:42:21;;;;;;;8.95;1.83;;;17.00;99.90;;;;;;4777361;30;20090;-68
2022/10/02 12:45:08;;;;;;;7.35;1.80;;;16.90;99.90;;;;;;4763989;30;20047;-68
2022/10/02 12:48:09;;;;;;;6.40;2.03;;;16.90;99.90;;;;;;4780011;30;20155;-68
2022/10/02 12:50:56;;;;;;;6.57;1.77;;;16.90;99.90;;;;;;4787396;29;20047;-67
2022/10/02 12:53:43;;;;;;;10.43;1.80;;;17.00;99.90;;;;;;4770806;30;20202;-67
2022/10/02 12:56:36;;;;;;;7.05;1.92;;;17.00;99.90;;;;;;4787622;29;20052;-68
2022/10/02 12:59:25;;;;;;;;;;;17.10;99.90;;;;;;4771742;30;20059;-68
2022/10/02 13:02:04;;;;;;;10.82;2.10;;;17.10;99.90;;;;;;4770563;30;20370;-69
2022/10/02 13:04:56;;;;;;;9.07;1.92;;;17.20;99.90;;;;;;4771082;30;20057;-68
2022/10/02 13:07:51;;;;;;;7.93;1.58;;;17.10;99.90;;;;;;4787456;30;20051;-67
2022/10/02 13:10:59;;;;;;;9.48;1.92;;;17.20;99.90;;;;;;4787174;30;20130;-68
2022/10/02 13:13:43;;;;;;;7.30;1.98;;;17.40;99.90;;;;;;4778561;30;20087;-68
2022/10/02 13:16:24;;;;;;;8.23;1.90;;;17.60;99.90;;;;;;4787308;29;20408;-67
2022/10/02 13:19:08;;;;;;;7.47;1.80;;;17.70;99.90;;;;;;4787098;29;20070;-68
2022/10/02 13:22:02;;;;;;;7.50;1.80;;;17.80;99.90;;;;;;4787548;29;20450;-68
2022/10/02 13:25:00;;;;;;;10.77;2.78;;;17.90;99.90;;;;;;4786884;29;20471;-67
2022/10/02 13:27:37;;;;;;;5.28;1.30;;;17.80;99.90;;;;;;4786827;29;20524;-68
2022/10/02 13:30:18;;;;;;;4.38;1.13;;;17.70;99.90;;;;;;4787349;29;20138;-68
2022/10/02 13:32:51;;;;;;;4.07;1.08;;;17.70;99.90;;;;;;4787294;29;20091;-68
2022/10/02 13:35:27;;;;;;;6.65;1.63;;;17.60;99.90;;;;;;4785836;29;20055;-68
2022/10/02 13:38:19;;;;;;;9.00;2.10;;;17.40;99.90;;;;;;4786594;29;20097;-68
2022/10/02 13:41:22;;;;;;;9.20;2.17;;;17.30;99.90;;;;;;4774391;30;20059;-69
2022/10/02 13:44:13;;;;;;;7.57;1.92;;;17.20;99.90;;;;;;4787531;29;20065;-69
2022/10/02 13:47:03;;;;;;;3.83;1.45;;;17.10;99.90;;;;;;4787511;29;20051;-68
2022/10/02 13:49:54;;;;;;;6.07;1.50;;;17.00;99.90;;;;;;4789391;30;20067;-67
2022/10/02 13:52:38;;;;;;;6.10;1.35;;;17.00;99.90;;;;;;4774429;30;20055;-68
2022/10/02 13:55:27;;;;;;;6.60;1.67;;;17.00;99.90;;;;;;4789326;29;20481;-68
2022/10/02 13:57:59;;;;;;;7.85;1.75;;;17.10;99.90;;;;;;4789920;30;20058;-68
2022/10/02 14:00:36;;;;;;;12.02;1.98;;;17.00;99.90;;;;;;4790386;30;20063;-68
2022/10/02 14:03:26;;;;;;;10.65;1.77;;;17.10;99.90;;;;;;4790297;30;20071;-68
2022/10/02 14:06:19;;;;;;;8.02;1.75;;;17.20;99.90;;;;;;4790326;30;20142;-68
2022/10/02 14:08:59;;;;;;;8.90;2.10;;;17.40;99.90;;;;;;4789382;30;20493;-68
2022/10/02 14:11:55;;;;;;;5.60;1.65;;;17.60;99.90;;;;;;4774253;30;20070;-69
2022/10/02 14:14:44;;;;;;;8.02;1.70;;;17.70;99.90;;;;;;4772202;30;20059;-68
2022/10/02 14:17:30;;;;;;;9.68;1.85;;;17.90;99.90;;;;;;4756334;30;20505;-68
2022/10/02 14:20:29;;;;;;;5.78;1.60;;;17.70;99.90;;;;;;4746452;30;20055;-68
2022/10/02 14:23:27;;;;;;;8.73;1.85;;;17.50;99.90;;;;;;4755524;30;20485;-67
2022/10/02 14:26:21;;;;;;;7.85;1.77;;;17.30;99.90;;;;;;4745148;30;20163;-68
2022/10/02 14:29:04;;;;;;;10.32;2.17;;;17.20;99.90;;;;;;4772285;30;20053;-68
2022/10/02 14:31:36;;;;;;;9.80;2.22;;;17.20;99.90;;;;;;4789928;29;20154;-68
2022/10/02 14:34:36;;;;;;;8.43;2.03;;;17.10;99.90;;;;;;4788329;29;20133;-68
2022/10/02 14:37:23;;;;;;;7.65;1.77;;;17.10;99.90;;;;;;4789767;30;20051;-67
2022/10/02 14:39:49;;;;;;;13.70;2.42;;;17.00;99.90;;;;;;4787650;29;20062;-68
2022/10/02 14:42:34;;;;;;;7.28;1.73;;;16.80;99.90;;;;;;4789793;30;20059;-68
2022/10/02 14:45:27;;;;;;;6.82;1.92;;;16.70;99.90;;;;;;4787918;29;20485;-68
2022/10/02 14:48:12;;;;;;;9.68;2.25;;;16.70;99.90;;;;;;4755422;30;20059;-68
2022/10/02 14:51:06;;;;;;;5.13;1.95;;;16.60;99.90;;;;;;4770509;30;20075;-68
2022/10/02 14:53:34;;;;;;;8.48;1.95;;;16.60;99.90;;;;;;4755380;30;20087;-68
2022/10/02 15:00:19;;;;;;;5.22;1.60;;;16.50;99.90;;;;;;4780949;30;20107;-68
2022/10/02 15:02:51;;;;;;;7.82;1.92;;;16.50;99.90;;;;;;4788983;30;20063;-68
2022/10/02 15:05:34;;;;;;;8.35;2.10;;;16.50;99.90;;;;;;4772927;30;20063;-68
2022/10/02 15:08:10;;;;;;;9.30;1.67;;;16.50;99.90;;;;;;4788965;30;20070;-68
2022/10/02 15:10:39;;;;;;;8.25;2.00;;;16.50;99.90;;;;;;4772897;30;20480;-67
2022/10/02 15:13:14;;;;;;;9.15;2.30;;;16.60;99.90;;;;;;4772675;30;20083;-68
2022/10/02 15:15:45;;;;;;;6.30;1.65;;;16.70;99.90;;;;;;4788471;29;20489;-68
2022/10/02 15:18:42;;;;;;;8.48;1.73;;;16.80;99.90;;;;;;4772413;30;20059;-68
2022/10/02 15:21:26;;;;;;;9.13;2.10;;;16.90;99.90;;;;;;4788939;30;20122;-67
2022/10/02 15:23:57;;;;;;;7.65;1.63;;;16.80;99.90;;;;;;4786991;29;20090;-68
2022/10/02 15:26:44;;;;;;;8.50;1.90;;;16.80;99.90;;;;;;4787719;30;20110;-68
2022/10/02 15:29:37;;;;;;;6.78;1.70;;;16.70;99.90;;;;;;4788884;29;20070;-68
2022/10/02 15:32:19;;;;;;;7.10;1.50;;;16.50;99.90;;;;;;4788681;29;20059;-67
2022/10/02 15:35:19;;;;;;;8.45;1.85;;;16.30;99.90;;;;;;4788839;29;20069;-68
2022/10/02 15:38:11;;;;;;;12.00;1.88;;;16.00;99.90;;;;;;4787077;29;20509;-67
2022/10/02 15:41:27;;;;;;;6.32;1.90;;;15.90;99.90;;;;;;4772096;30;20059;-67
2022/10/02 15:51:54;;;;;;;8.27;2.38;;;15.80;99.90;;;;;;4788336;30;20055;-68
2022/10/02 15:55:11;;;;;;;10.20;2.17;;;15.80;99.90;;;;;;4771813;30;20454;-68
2022/10/02 15:58:01;;;;;;;7.95;1.77;;;15.80;99.90;;;;;;4788246;29;20055;-67
2022/10/02 16:00:28;;;;;;;5.85;1.45;;;15.90;99.90;;;;;;4771928;29;20063;-67
2022/10/02 16:03:14;;;;;;;6.40;1.77;;;16.00;99.90;;;;;;4787579;30;20146;-68
2022/10/02 16:05:55;;;;;;;10.93;2.17;;;16.00;99.90;;;;;;4787032;29;20051;-67
2022/10/02 16:08:42;;;;;;;9.50;2.00;;;15.90;99.90;;;;;;4785196;29;20146;-67
2022/10/02 16:11:43;;;;;;;9.05;2.10;;;15.80;99.90;;;;;;4784976;29;20074;-68
2022/10/02 16:14:20;;;;;;;5.68;1.90;;;15.70;99.90;;;;;;4768120;30;20504;-68
2022/10/02 16:17:04;;;;;;;7.18;2.28;;;15.50;99.90;;;;;;4768219;30;20104;-68
2022/10/02 16:19:39;;;;;;;7.25;2.13;;;15.40;99.90;;;;;;4771630;30;20124;-67
2022/10/02 16:22:10;;;;;;;11.18;2.22;;;15.30;99.90;;;;;;4787786;30;20063;-68
2022/10/02 16:25:17;;;;;;;8.23;2.03;;;15.20;99.90;;;;;;4770292;30;20390;-68
2022/10/02 16:27:57;;;;;;;9.23;2.33;;;15.00;99.90;;;;;;4769562;30;20108;-67
2022/10/02 16:30:24;;;;;;;8.85;1.85;;;15.00;99.90;;;;;;4788063;30;20067;-67
2022/10/02 16:33:29;;;;;;;9.30;2.33;;;14.90;99.90;;;;;;4770017;30;20067;-68
2022/10/02 16:36:32;;;;;;;7.88;2.22;;;14.80;99.90;;;;;;4787507;30;20061;-68
2022/10/02 16:39:03;;;;;;;8.48;2.33;;;14.80;99.90;;;;;;4783380;29;20100;-68
2022/10/02 16:41:47;;;;;;;11.50;2.22;;;14.70;99.90;;;;;;4786260;29;20126;-67
2022/10/02 16:44:24;;;;;;;7.32;1.98;;;14.70;99.90;;;;;;4771150;30;20575;-67
2022/10/02 16:47:11;;;;;;;9.15;2.42;;;14.70;99.90;;;;;;4755290;30;20108;-68
2022/10/02 16:49:50;;;;;;;10.77;2.97;;;14.70;99.90;;;;;;4787026;29;20151;-67
2022/10/02 16:52:28;;;;;;;8.40;2.15;;;14.60;99.90;;;;;;4770875;30;20082;-67
2022/10/02 16:55:13;;;;;;;10.27;2.17;;;14.60;99.90;;;;;;4771462;30;20063;-68